createdAt,value
2022-08-16T00:03:13.230Z,21.87
2022-08-16T00:06:17.857Z,21.82
2022-08-16T00:09:21.375Z,21.60
2022-08-16T00:12:25.546Z,21.21
2022-08-16T00:15:51.739Z,21.14
2022-08-16T00:18:55.473Z,21.05
2022-08-16T00:22:03.035Z,21.11
2022-08-16T00:25:14.096Z,21.22
2022-08-16T00:28:16.854Z,21.14
2022-08-16T00:31:20.203Z,20.72
2022-08-16T00:34:43.951Z,20.60
2022-08-16T00:37:56.998Z,20.56
2022-08-16T00:41:06.066Z,20.40
2022-08-16T00:44:13.642Z,20.43
2022-08-16T00:47:19.821Z,20.65
2022-08-16T00:50:36.538Z,20.80
2022-08-16T00:53:39.913Z,20.69
2022-08-16T00:56:58.487Z,20.63
2022-08-16T01:00:05.673Z,20.63
2022-08-16T01:03:12.796Z,20.54
2022-08-16T01:06:40.340Z,20.60
2022-08-16T01:09:43.366Z,20.54
2022-08-16T01:12:47.048Z,20.17
2022-08-16T01:15:57.503Z,20.16
2022-08-16T01:19:18.700Z,20.09
2022-08-16T01:22:52.762Z,20.07
2022-08-16T01:26:00.158Z,20.13
2022-08-16T01:29:49.619Z,20.17
2022-08-16T01:33:02.457Z,20.05
2022-08-16T01:36:17.060Z,19.83
2022-08-16T01:39:20.970Z,19.88
2022-08-16T01:42:26.603Z,20.04
2022-08-16T01:45:40.434Z,19.94
2022-08-16T01:48:46.242Z,19.92
2022-08-16T01:51:55.290Z,19.83
2022-08-16T01:54:59.573Z,19.58
2022-08-16T01:58:03.162Z,19.57
2022-08-16T02:01:07.493Z,19.69
2022-08-16T02:04:12.032Z,19.71
2022-08-16T02:07:34.864Z,19.68
2022-08-16T02:10:38.746Z,19.67
2022-08-16T02:13:44.225Z,19.69
2022-08-16T02:16:48.038Z,19.63
2022-08-16T02:19:58.525Z,19.67
2022-08-16T02:23:05.757Z,19.76
2022-08-16T02:26:09.815Z,19.60
2022-08-16T02:29:20.941Z,19.50
2022-08-16T02:32:49.140Z,19.47
2022-08-16T02:35:53.749Z,19.41
2022-08-16T02:42:04.198Z,19.30
2022-08-16T02:45:07.485Z,19.24
2022-08-16T02:48:29.708Z,19.28
2022-08-16T02:51:35.763Z,19.26
2022-08-16T02:54:40.728Z,19.13
2022-08-16T02:57:54.525Z,19.09
2022-08-16T03:00:58.885Z,19.23
2022-08-16T03:04:39.979Z,19.21
2022-08-16T03:07:27.985Z,19.05
2022-08-16T03:10:33.343Z,18.94
2022-08-16T03:13:40.250Z,19.06
2022-08-16T03:16:59.051Z,18.85
2022-08-16T03:20:11.976Z,18.84
2022-08-16T03:23:15.536Z,18.71
2022-08-16T03:26:19.887Z,18.81
2022-08-16T03:29:24.908Z,18.91
2022-08-16T03:32:28.182Z,18.87
2022-08-16T03:35:35.080Z,18.90
2022-08-16T03:38:39.726Z,18.98
2022-08-16T03:41:50.210Z,19.08
2022-08-16T03:45:03.923Z,18.78
2022-08-16T03:48:15.134Z,19.02
2022-08-16T03:51:25.321Z,18.87
2022-08-16T03:54:31.810Z,18.65
2022-08-16T03:57:36.823Z,18.75
2022-08-16T04:00:41.025Z,18.73
2022-08-16T04:03:46.866Z,18.72
2022-08-16T04:06:52.722Z,18.67
2022-08-16T04:10:00.570Z,18.72
2022-08-16T04:14:00.301Z,18.65
2022-08-16T04:16:47.585Z,18.64
2022-08-16T04:19:58.217Z,18.56
2022-08-16T04:23:03.426Z,18.55
2022-08-16T04:26:07.868Z,18.48
2022-08-16T04:29:23.469Z,18.42
2022-08-16T04:32:27.933Z,18.35
2022-08-16T04:35:34.530Z,18.36
2022-08-16T04:38:37.566Z,18.20
2022-08-16T04:41:41.486Z,18.25
2022-08-16T04:44:53.759Z,18.22
2022-08-16T04:48:00.242Z,18.32
2022-08-16T04:51:11.621Z,18.40
2022-08-16T04:54:19.445Z,18.44
2022-08-16T04:57:23.763Z,18.47
2022-08-16T05:00:34.499Z,18.54
2022-08-16T05:03:41.737Z,18.57
2022-08-16T05:07:02.884Z,18.66
2022-08-16T05:10:19.833Z,18.73
2022-08-16T05:13:40.024Z,18.87
2022-08-16T05:16:46.847Z,19.01
2022-08-16T05:19:59.060Z,18.93
2022-08-16T05:23:02.200Z,19.01
2022-08-16T05:26:05.676Z,19.06
2022-08-16T05:29:23.060Z,19.24
2022-08-16T05:32:34.265Z,19.44
2022-08-16T05:35:39.820Z,19.96
2022-08-16T05:38:46.731Z,20.25
2022-08-16T05:41:51.881Z,20.58
2022-08-16T05:44:55.483Z,21.01
2022-08-16T05:48:02.031Z,21.37
2022-08-16T05:51:06.838Z,21.58
2022-08-16T05:54:14.255Z,21.85
2022-08-16T05:57:20.685Z,21.71
2022-08-16T06:00:26.083Z,21.48
2022-08-16T06:03:31.113Z,21.23
2022-08-16T06:06:37.331Z,20.94
2022-08-16T06:09:44.666Z,20.84
2022-08-16T06:12:52.640Z,20.85
2022-08-16T06:15:59.408Z,20.67
2022-08-16T06:19:04.963Z,20.63
2022-08-16T06:22:09.289Z,20.84
2022-08-16T06:25:36.081Z,20.90
2022-08-16T06:28:42.384Z,21.16
2022-08-16T06:31:49.315Z,21.33
2022-08-16T06:35:02.658Z,21.57
2022-08-16T06:38:06.190Z,21.54
2022-08-16T06:41:29.318Z,21.59
2022-08-16T06:44:43.162Z,21.55
2022-08-16T06:47:53.288Z,21.59
2022-08-16T06:50:58.418Z,21.82
2022-08-16T06:54:01.875Z,22.15
2022-08-16T06:57:16.476Z,22.51
2022-08-16T07:00:24.357Z,23.10
2022-08-16T07:03:32.495Z,23.63
2022-08-16T07:06:55.223Z,23.95
2022-08-16T07:09:57.974Z,24.57
2022-08-16T07:13:04.259Z,25.26
2022-08-16T07:16:16.817Z,25.86
2022-08-16T07:20:01.856Z,26.12
2022-08-16T07:22:52.735Z,26.30
2022-08-16T07:26:02.763Z,26.22
2022-08-16T07:29:06.770Z,26.55
2022-08-16T07:32:11.649Z,27.04
2022-08-16T07:35:15.605Z,27.30
2022-08-16T07:38:19.970Z,26.94
2022-08-16T07:41:24.388Z,27.30
2022-08-16T07:44:37.554Z,27.51
2022-08-16T07:47:54.597Z,27.88
2022-08-16T07:51:01.596Z,28.06
2022-08-16T07:54:20.935Z,28.88
2022-08-16T07:57:26.266Z,29.31
2022-08-16T08:00:29.892Z,29.85
2022-08-16T08:03:35.851Z,30.19
2022-08-16T08:06:44.293Z,30.20
2022-08-16T08:09:50.073Z,30.29
2022-08-16T08:12:54.952Z,30.35
2022-08-16T08:15:58.618Z,31.03
2022-08-16T08:19:03.032Z,30.57
2022-08-16T08:22:07.455Z,31.07
2022-08-16T08:25:12.934Z,31.00
2022-08-16T08:28:17.908Z,31.37
2022-08-16T08:31:22.309Z,31.99
2022-08-16T08:34:26.030Z,32.35
2022-08-16T08:37:53.868Z,32.30
2022-08-16T08:40:52.398Z,32.60
2022-08-16T08:43:58.270Z,32.57
2022-08-16T08:47:07.938Z,33.20
2022-08-16T08:50:32.307Z,33.10
2022-08-16T08:53:39.704Z,33.04
2022-08-16T08:56:45.786Z,33.59
2022-08-16T08:59:55.999Z,33.52
2022-08-16T09:02:59.988Z,34.06
2022-08-16T09:06:08.986Z,33.72
2022-08-16T09:09:17.084Z,33.48
2022-08-16T09:12:35.593Z,34.15
2022-08-16T09:15:40.062Z,34.20
2022-08-16T09:18:44.911Z,33.67
2022-08-16T09:21:55.998Z,34.15
2022-08-16T09:25:10.980Z,34.55
2022-08-16T09:29:13.831Z,34.66
2022-08-16T09:31:41.243Z,35.11
2022-08-16T09:34:45.512Z,35.46
2022-08-16T09:38:00.592Z,35.56
2022-08-16T09:41:06.433Z,35.69
2022-08-16T09:45:12.782Z,36.09
2022-08-16T09:47:56.785Z,35.50
2022-08-16T09:51:03.058Z,35.02
2022-08-16T09:54:09.808Z,35.77
2022-08-16T09:57:13.090Z,35.79
2022-08-16T10:00:44.145Z,36.26
2022-08-16T10:04:02.084Z,36.18
2022-08-16T10:07:15.639Z,36.06
2022-08-16T10:10:30.547Z,35.83
2022-08-16T10:13:36.494Z,36.80
2022-08-16T10:16:41.502Z,36.71
2022-08-16T10:19:50.326Z,36.16
2022-08-16T10:23:02.075Z,37.39
2022-08-16T10:27:16.384Z,36.87
2022-08-16T10:29:59.934Z,36.79
2022-08-16T10:32:56.355Z,37.24
2022-08-16T10:36:03.341Z,37.16
2022-08-16T10:39:08.662Z,36.76
2022-08-16T10:42:13.201Z,36.98
2022-08-16T10:45:18.226Z,37.23
2022-08-16T10:48:23.961Z,37.35
2022-08-16T10:51:34.410Z,37.30
2022-08-16T10:54:59.998Z,37.29
2022-08-16T10:58:19.588Z,37.31
2022-08-16T11:01:43.146Z,37.89
2022-08-16T11:08:12.252Z,37.60
2022-08-16T11:11:19.993Z,37.70
2022-08-16T11:14:26.736Z,37.99
2022-08-16T11:17:32.661Z,38.06
2022-08-16T11:20:41.034Z,38.43
2022-08-16T11:23:57.776Z,37.90
2022-08-16T11:30:28.315Z,38.70
2022-08-16T11:33:56.836Z,39.06
2022-08-16T11:37:01.493Z,39.13
2022-08-16T11:40:07.730Z,38.78
2022-08-16T11:43:16.891Z,38.87
2022-08-16T11:46:43.236Z,38.61
2022-08-16T11:49:47.086Z,38.66
2022-08-16T11:52:50.238Z,39.16
2022-08-16T11:55:54.955Z,38.14
2022-08-16T11:58:58.303Z,38.61
2022-08-16T12:02:30.774Z,38.53
2022-08-16T12:05:24.783Z,38.28
2022-08-16T12:08:30.064Z,38.35
2022-08-16T12:11:33.772Z,38.96
2022-08-16T12:14:38.769Z,39.17
2022-08-16T12:17:43.655Z,38.08
2022-08-16T12:20:46.639Z,38.97
2022-08-16T12:23:49.694Z,39.46
2022-08-16T12:26:53.907Z,39.04
2022-08-16T12:29:58.601Z,39.37
2022-08-16T12:33:03.461Z,39.11
2022-08-16T12:36:09.921Z,38.59
2022-08-16T12:39:17.906Z,38.71
2022-08-16T12:42:34.778Z,39.16
2022-08-16T12:45:44.091Z,38.59
2022-08-16T12:48:59.233Z,39.18
2022-08-16T12:52:02.727Z,38.34
2022-08-16T12:55:08.620Z,36.67
2022-08-16T12:58:13.498Z,36.62
2022-08-16T13:01:37.379Z,37.48
2022-08-16T13:04:39.993Z,37.77
2022-08-16T13:07:51.813Z,38.23
2022-08-16T13:10:56.145Z,37.08
2022-08-16T13:14:00.173Z,37.37
2022-08-16T13:17:06.901Z,37.64
2022-08-16T13:20:15.643Z,38.23
2022-08-16T13:23:18.745Z,37.88
2022-08-16T13:26:24.305Z,37.60
2022-08-16T13:29:40.212Z,37.67
2022-08-16T13:32:48.108Z,37.32
2022-08-16T13:35:55.870Z,37.89
2022-08-16T13:39:00.574Z,37.29
2022-08-16T13:42:04.577Z,37.36
2022-08-16T13:45:15.619Z,37.59
2022-08-16T13:48:24.485Z,37.27
2022-08-16T13:51:30.588Z,37.22
2022-08-16T13:54:34.005Z,37.52
2022-08-16T13:57:53.037Z,37.25
2022-08-16T14:00:57.247Z,37.03
2022-08-16T14:04:01.567Z,36.94
2022-08-16T14:07:06.643Z,36.92
2022-08-16T14:10:15.264Z,36.42
2022-08-16T14:13:21.032Z,36.15
2022-08-16T14:16:33.536Z,36.18
2022-08-16T14:19:37.223Z,36.18
2022-08-16T14:22:52.544Z,36.15
2022-08-16T14:25:57.881Z,35.55
2022-08-16T14:29:03.589Z,35.94
2022-08-16T14:32:09.121Z,35.90
2022-08-16T14:35:17.211Z,36.12
2022-08-16T14:38:23.459Z,35.68
2022-08-16T14:41:29.307Z,35.39
2022-08-16T14:44:32.915Z,34.45
2022-08-16T14:47:38.697Z,34.45
2022-08-16T14:50:41.561Z,34.31
2022-08-16T14:53:51.989Z,34.34
2022-08-16T14:56:55.721Z,34.23
2022-08-16T15:00:05.955Z,33.96
2022-08-16T15:03:10.884Z,33.91
2022-08-16T15:06:14.357Z,33.75
2022-08-16T15:09:17.943Z,33.72
2022-08-16T15:12:26.975Z,33.53
2022-08-16T15:15:35.341Z,33.31
2022-08-16T15:18:39.373Z,33.12
2022-08-16T15:21:42.582Z,32.71
2022-08-16T15:24:45.549Z,32.58
2022-08-16T15:27:54.786Z,32.41
2022-08-16T15:31:02.975Z,32.38
2022-08-16T15:34:13.051Z,32.40
2022-08-16T15:37:23.161Z,32.31
2022-08-16T15:40:32.021Z,32.31
2022-08-16T15:43:40.419Z,32.25
2022-08-16T15:46:55.454Z,32.15
2022-08-16T15:50:02.588Z,32.12
2022-08-16T15:53:17.199Z,32.08
2022-08-16T15:56:21.713Z,31.94
2022-08-16T15:59:30.686Z,31.90
2022-08-16T16:03:19.262Z,31.87
2022-08-16T16:06:27.933Z,31.74
2022-08-16T16:09:36.996Z,31.67
2022-08-16T16:12:50.365Z,31.68
2022-08-16T16:15:58.266Z,31.61
2022-08-16T16:19:01.300Z,31.53
2022-08-16T16:22:07.852Z,31.48
2022-08-16T16:25:12.078Z,31.43
2022-08-16T16:28:46.375Z,31.34
2022-08-16T16:31:43.958Z,31.25
2022-08-16T16:35:04.474Z,31.20
2022-08-16T16:38:09.112Z,31.18
2022-08-16T16:41:12.065Z,31.13
2022-08-16T16:44:22.564Z,31.03
2022-08-16T16:47:40.719Z,31.00
2022-08-16T16:50:45.605Z,30.97
2022-08-16T16:53:56.120Z,30.83
2022-08-16T16:56:59.438Z,30.83
2022-08-16T17:00:30.308Z,30.78
2022-08-16T17:03:31.465Z,30.64
2022-08-16T17:06:36.886Z,30.58
2022-08-16T17:09:41.625Z,30.56
2022-08-16T17:12:46.887Z,30.41
2022-08-16T17:15:52.729Z,30.33
2022-08-16T17:19:15.024Z,30.24
2022-08-16T17:22:21.570Z,30.14
2022-08-16T17:25:36.233Z,30.02
2022-08-16T17:28:59.057Z,29.85
2022-08-16T17:32:33.636Z,29.72
2022-08-16T17:35:55.008Z,29.61
2022-08-16T17:39:00.215Z,29.51
2022-08-16T17:42:08.294Z,29.35
2022-08-16T17:45:11.467Z,29.23
2022-08-16T17:48:14.861Z,29.07
2022-08-16T17:51:17.912Z,29.00
2022-08-16T17:54:30.749Z,28.87
2022-08-16T17:57:35.277Z,28.76
2022-08-16T18:00:42.033Z,28.65
2022-08-16T18:04:06.805Z,28.52
2022-08-16T18:07:08.737Z,28.43
2022-08-16T18:10:23.691Z,28.34
2022-08-16T18:13:36.899Z,28.22
2022-08-16T18:16:41.527Z,28.09
2022-08-16T18:19:44.715Z,28.09
2022-08-16T18:22:48.685Z,28.09
2022-08-16T18:25:57.550Z,28.26
2022-08-16T18:29:01.957Z,28.14
2022-08-16T18:32:05.734Z,28.16
2022-08-16T18:35:09.447Z,28.00
2022-08-16T18:38:13.221Z,27.85
2022-08-16T18:41:17.336Z,27.81
2022-08-16T18:44:24.835Z,27.88
2022-08-16T18:47:31.174Z,27.72
2022-08-16T18:51:04.844Z,27.63
2022-08-16T18:53:57.851Z,27.46
2022-08-16T18:57:03.456Z,27.35
2022-08-16T19:00:13.150Z,27.42
2022-08-16T19:03:22.379Z,27.39
2022-08-16T19:06:25.488Z,27.39
2022-08-16T19:09:28.565Z,27.16
2022-08-16T19:12:38.620Z,27.02
2022-08-16T19:15:46.717Z,26.93
2022-08-16T19:18:50.267Z,26.85
2022-08-16T19:21:53.900Z,26.85
2022-08-16T19:24:57.497Z,26.72
2022-08-16T19:28:00.448Z,26.35
2022-08-16T19:31:05.974Z,26.42
2022-08-16T19:34:08.977Z,26.47
2022-08-16T19:37:12.335Z,26.45
2022-08-16T19:40:37.119Z,26.25
2022-08-16T19:43:39.425Z,26.07
2022-08-16T19:46:47.615Z,25.94
2022-08-16T19:49:51.567Z,25.96
2022-08-16T19:53:12.931Z,26.12
2022-08-16T19:56:26.370Z,25.80
2022-08-16T19:59:39.205Z,25.66
2022-08-16T20:02:51.285Z,25.56
2022-08-16T20:05:54.844Z,25.33
2022-08-16T20:08:57.941Z,25.31
2022-08-16T20:12:11.778Z,25.43
2022-08-16T20:15:16.708Z,25.25
2022-08-16T20:18:25.127Z,25.23
2022-08-16T20:21:28.913Z,25.08
2022-08-16T20:24:35.302Z,25.01
2022-08-16T20:27:40.362Z,25.15
2022-08-16T20:30:43.658Z,24.99
2022-08-16T20:33:46.299Z,24.74
2022-08-16T20:36:50.271Z,24.62
2022-08-16T20:40:27.231Z,24.69
2022-08-16T20:43:19.259Z,24.62
2022-08-16T20:46:22.253Z,24.49
2022-08-16T20:49:25.362Z,24.34
2022-08-16T20:52:28.394Z,24.20
2022-08-16T20:55:35.484Z,24.03
2022-08-16T20:58:39.986Z,23.95
2022-08-16T21:01:46.784Z,23.94
2022-08-16T21:04:54.279Z,23.86
2022-08-16T21:08:50.844Z,23.72
2022-08-16T21:11:28.621Z,23.53
2022-08-16T21:14:34.555Z,23.52
2022-08-16T21:17:37.453Z,23.42
2022-08-16T21:20:44.174Z,23.51
2022-08-16T21:23:47.260Z,23.47
2022-08-16T21:26:55.998Z,23.56
2022-08-16T21:29:59.291Z,23.45
2022-08-16T21:33:12.243Z,23.44
2022-08-16T21:36:15.225Z,23.26
2022-08-16T21:39:38.653Z,23.22
2022-08-16T21:42:44.369Z,23.10
2022-08-16T21:45:48.402Z,22.97
2022-08-16T21:49:05.889Z,22.85
2022-08-16T21:52:26.718Z,22.50
2022-08-16T21:55:29.651Z,22.50
2022-08-16T21:58:37.407Z,22.52
2022-08-16T22:01:42.596Z,22.38
2022-08-16T22:04:46.484Z,22.52
2022-08-16T22:07:50.032Z,22.58
2022-08-16T22:11:07.695Z,22.41
2022-08-16T22:14:13.339Z,22.48
2022-08-16T22:17:16.866Z,22.55
2022-08-16T22:20:21.320Z,22.74
2022-08-16T22:23:26.279Z,22.56
2022-08-16T22:26:32.020Z,22.57
2022-08-16T22:29:36.638Z,22.51
2022-08-16T22:32:44.345Z,22.51
2022-08-16T22:35:49.689Z,22.43
2022-08-16T22:38:55.715Z,22.28
2022-08-16T22:42:07.729Z,22.35
2022-08-16T22:45:11.548Z,22.18
2022-08-16T22:48:16.771Z,22.19
2022-08-16T22:51:20.901Z,22.19
2022-08-16T22:54:39.260Z,21.90
2022-08-16T22:57:48.936Z,22.05
2022-08-16T23:00:52.025Z,22.10
2022-08-16T23:03:55.823Z,21.83
2022-08-16T23:06:58.974Z,21.62
2022-08-16T23:10:02.108Z,21.52
2022-08-16T23:13:06.860Z,21.41
2022-08-16T23:16:10.788Z,21.38
2022-08-16T23:19:17.305Z,21.53
2022-08-16T23:22:24.547Z,21.69
2022-08-16T23:25:30.701Z,21.83
2022-08-16T23:28:34.621Z,21.72
2022-08-16T23:31:37.933Z,21.80
2022-08-16T23:34:41.386Z,21.96
2022-08-16T23:37:46.866Z,21.78
2022-08-16T23:40:50.281Z,21.74
2022-08-16T23:43:53.368Z,21.68
2022-08-16T23:46:56.090Z,21.58
2022-08-16T23:50:03.582Z,21.46
2022-08-16T23:53:14.324Z,21.25
2022-08-16T23:56:20.298Z,21.25
2022-08-16T23:59:23.015Z,21.37
